createdAt,value
2018-01-06T00:01:43.392Z,6.90
2018-01-06T00:04:10.881Z,6.90
2018-01-06T00:06:38.409Z,6.90
2018-01-06T00:09:05.868Z,6.90
2018-01-06T00:11:33.378Z,6.90
2018-01-06T00:14:01.613Z,6.90
2018-01-06T00:16:29.068Z,6.90
2018-01-06T00:18:56.544Z,6.90
2018-01-06T00:21:24.023Z,6.90
2018-01-06T00:23:51.475Z,6.90
2018-01-06T00:26:18.932Z,6.80
2018-01-06T00:28:46.394Z,6.80
2018-01-06T00:31:14.620Z,6.90
2018-01-06T00:33:42.110Z,6.80
2018-01-06T00:36:09.585Z,6.90
2018-01-06T00:38:37.856Z,6.80
2018-01-06T00:41:06.082Z,6.80
2018-01-06T00:43:33.633Z,6.80
2018-01-06T00:46:01.240Z,6.90
2018-01-06T00:48:28.698Z,6.90
2018-01-06T00:50:56.206Z,6.90
2018-01-06T00:53:23.658Z,6.80
2018-01-06T00:55:51.124Z,6.80
2018-01-06T00:58:18.580Z,6.70
2018-01-06T01:00:46.044Z,6.70
2018-01-06T01:03:13.501Z,6.70
2018-01-06T01:05:40.961Z,6.70
2018-01-06T01:08:08.425Z,6.70
2018-01-06T01:10:36.157Z,6.60
2018-01-06T01:13:03.621Z,6.60
2018-01-06T01:15:31.088Z,6.70
2018-01-06T01:17:58.540Z,6.60
2018-01-06T01:20:26.004Z,6.60
2018-01-06T01:22:53.548Z,6.70
2018-01-06T01:25:21.020Z,6.70
2018-01-06T01:27:48.484Z,6.70
2018-01-06T01:30:15.942Z,6.80
2018-01-06T01:32:43.408Z,6.80
2018-01-06T01:35:10.864Z,6.90
2018-01-06T01:37:38.329Z,7.00
2018-01-06T01:40:06.560Z,6.90
2018-01-06T01:42:34.017Z,6.90
2018-01-06T01:45:01.472Z,7.00
2018-01-06T01:47:28.942Z,7.00
2018-01-06T01:49:56.396Z,7.10
2018-01-06T01:52:23.890Z,7.00
2018-01-06T01:54:51.344Z,7.00
2018-01-06T01:57:18.896Z,7.10
2018-01-06T01:59:46.457Z,7.10
2018-01-06T02:02:14.304Z,7.10
2018-01-06T02:04:41.787Z,7.10
2018-01-06T02:07:09.355Z,7.00
2018-01-06T02:09:36.819Z,7.10
2018-01-06T02:12:05.045Z,7.00
2018-01-06T02:14:32.500Z,7.00
2018-01-06T02:16:59.984Z,7.00
2018-01-06T02:19:27.445Z,6.90
2018-01-06T02:21:54.901Z,6.90
2018-01-06T02:24:23.202Z,6.90
2018-01-06T02:26:51.452Z,6.90
2018-01-06T02:29:18.924Z,6.80
2018-01-06T02:31:46.398Z,6.70
2018-01-06T02:34:14.620Z,6.70
2018-01-06T02:36:42.114Z,6.70
2018-01-06T02:39:10.332Z,6.70
2018-01-06T02:41:37.842Z,6.60
2018-01-06T02:44:06.878Z,6.70
2018-01-06T02:46:34.408Z,6.70
2018-01-06T02:49:02.629Z,6.70
2018-01-06T02:51:30.086Z,6.60
2018-01-06T02:53:57.545Z,6.70
2018-01-06T02:56:25.000Z,6.60
2018-01-06T02:58:52.457Z,6.70
2018-01-06T03:01:19.907Z,6.70
2018-01-06T03:03:47.388Z,6.70
2018-01-06T03:06:14.853Z,6.70
2018-01-06T03:08:42.300Z,6.70
2018-01-06T03:11:09.771Z,6.70
2018-01-06T03:13:37.221Z,6.70
2018-01-06T03:16:04.672Z,6.70
2018-01-06T03:18:32.128Z,6.70
2018-01-06T03:20:59.683Z,6.70
2018-01-06T03:23:27.254Z,6.60
2018-01-06T03:25:54.709Z,6.60
2018-01-06T03:28:22.160Z,6.50
2018-01-06T03:30:49.616Z,6.40
2018-01-06T03:33:17.097Z,6.20
2018-01-06T03:35:44.653Z,6.20
2018-01-06T03:38:12.124Z,6.20
2018-01-06T03:40:40.340Z,6.20
2018-01-06T03:43:07.802Z,6.10
2018-01-06T03:45:35.298Z,6.10
2018-01-06T03:48:02.842Z,6.10
2018-01-06T03:50:30.288Z,6.20
2018-01-06T03:52:57.745Z,6.20
2018-01-06T03:55:25.304Z,6.20
2018-01-06T03:57:52.755Z,6.20
2018-01-06T04:00:20.211Z,6.30
2018-01-06T04:02:47.667Z,6.30
2018-01-06T04:05:15.133Z,6.30
2018-01-06T04:07:42.687Z,6.30
2018-01-06T04:10:10.150Z,6.30
2018-01-06T04:12:37.599Z,6.40
2018-01-06T04:15:05.160Z,6.40
2018-01-06T04:17:32.626Z,6.40
2018-01-06T04:20:00.081Z,6.40
2018-01-06T04:22:27.536Z,6.50
2018-01-06T04:24:54.999Z,6.50
2018-01-06T04:27:22.552Z,6.50
2018-01-06T04:29:50.032Z,6.50
2018-01-06T04:32:18.248Z,6.30
2018-01-06T04:34:45.801Z,6.30
2018-01-06T04:37:13.362Z,6.40
2018-01-06T04:39:40.837Z,6.30
2018-01-06T04:42:08.277Z,6.30
2018-01-06T04:44:35.754Z,6.30
2018-01-06T04:47:03.221Z,6.30
2018-01-06T04:49:30.792Z,6.40
2018-01-06T04:51:58.251Z,6.30
2018-01-06T04:54:25.801Z,6.30
2018-01-06T04:56:53.397Z,6.40
2018-01-06T04:59:21.607Z,6.30
2018-01-06T05:01:49.076Z,6.30
2018-01-06T05:04:16.658Z,6.40
2018-01-06T05:06:44.220Z,6.30
2018-01-06T05:09:11.764Z,6.30
2018-01-06T05:11:39.223Z,6.40
2018-01-06T05:14:07.086Z,6.30
2018-01-06T05:16:34.653Z,6.20
2018-01-06T05:19:02.097Z,6.20
2018-01-06T05:21:29.547Z,6.20
2018-01-06T05:23:57.298Z,6.20
2018-01-06T05:26:24.752Z,6.20
2018-01-06T05:28:52.216Z,6.30
2018-01-06T05:31:19.678Z,6.30
2018-01-06T05:33:47.136Z,6.30
2018-01-06T05:36:14.669Z,6.30
2018-01-06T05:38:42.163Z,6.30
2018-01-06T05:41:09.727Z,6.20
2018-01-06T05:43:37.282Z,6.30
2018-01-06T05:46:04.743Z,6.30
2018-01-06T05:48:32.303Z,6.30
2018-01-06T05:50:59.921Z,6.30
2018-01-06T05:53:27.377Z,6.30
2018-01-06T05:55:54.832Z,6.30
2018-01-06T05:58:22.341Z,6.40
2018-01-06T06:00:49.799Z,6.40
2018-01-06T06:03:17.252Z,6.30
2018-01-06T06:05:45.487Z,6.30
2018-01-06T06:08:13.036Z,6.30
2018-01-06T06:10:40.490Z,6.30
2018-01-06T06:13:07.948Z,6.30
2018-01-06T06:15:35.404Z,6.20
2018-01-06T06:18:02.964Z,6.20
2018-01-06T06:20:30.416Z,6.20
2018-01-06T06:22:57.912Z,6.10
2018-01-06T06:25:25.364Z,6.10
2018-01-06T06:27:52.816Z,6.00
2018-01-06T06:30:20.282Z,6.10
2018-01-06T06:32:47.740Z,6.10
2018-01-06T06:35:15.305Z,6.20
2018-01-06T06:37:42.864Z,6.10
2018-01-06T06:40:10.425Z,6.10
2018-01-06T06:42:37.876Z,6.00
2018-01-06T06:45:05.346Z,6.00
2018-01-06T06:47:32.793Z,6.10
2018-01-06T06:50:00.362Z,6.10
2018-01-06T06:52:27.905Z,6.10
2018-01-06T06:54:55.360Z,6.20
2018-01-06T06:57:22.815Z,6.20
2018-01-06T06:59:51.063Z,6.20
2018-01-06T07:02:18.512Z,6.10
2018-01-06T07:04:45.965Z,6.10
2018-01-06T07:07:13.459Z,6.10
2018-01-06T07:09:40.920Z,6.10
2018-01-06T07:12:08.374Z,6.10
2018-01-06T07:14:35.933Z,6.20
2018-01-06T07:17:03.492Z,6.30
2018-01-06T07:19:30.940Z,6.30
2018-01-06T07:21:58.399Z,6.30
2018-01-06T07:24:25.864Z,6.40
2018-01-06T07:26:53.325Z,6.40
2018-01-06T07:29:21.558Z,6.40
2018-01-06T07:31:49.016Z,6.30
2018-01-06T07:34:16.477Z,6.40
2018-01-06T07:36:43.982Z,6.40
2018-01-06T07:39:11.431Z,6.40
2018-01-06T07:41:38.996Z,6.40
2018-01-06T07:44:06.546Z,6.40
2018-01-06T07:46:33.996Z,6.40
2018-01-06T07:49:01.462Z,6.40
2018-01-06T07:51:28.909Z,6.40
2018-01-06T07:53:56.367Z,6.40
2018-01-06T07:56:23.927Z,6.40
2018-01-06T07:58:51.380Z,6.50
2018-01-06T08:01:18.947Z,6.50
2018-01-06T08:03:46.563Z,6.50
2018-01-06T08:06:14.060Z,6.60
2018-01-06T08:08:41.513Z,6.60
2018-01-06T08:11:09.730Z,6.70
2018-01-06T08:13:37.198Z,6.60
2018-01-06T08:16:04.672Z,6.70
2018-01-06T08:18:32.159Z,6.70
2018-01-06T08:20:59.608Z,6.70
2018-01-06T08:23:27.073Z,6.80
2018-01-06T08:25:54.648Z,6.80
2018-01-06T08:28:22.914Z,6.80
2018-01-06T08:30:50.462Z,6.80
2018-01-06T08:33:17.916Z,6.80
2018-01-06T08:35:45.367Z,6.90
2018-01-06T08:38:12.845Z,6.90
2018-01-06T08:40:40.325Z,6.90
2018-01-06T08:43:08.556Z,7.00
2018-01-06T08:45:36.086Z,7.00
2018-01-06T08:48:03.645Z,7.10
2018-01-06T08:50:31.118Z,7.10
2018-01-06T08:52:58.587Z,7.20
2018-01-06T08:55:26.050Z,7.30
2018-01-06T08:57:53.505Z,7.40
2018-01-06T09:00:20.979Z,7.50
2018-01-06T09:02:48.428Z,7.60
2018-01-06T09:05:15.884Z,7.60
2018-01-06T09:07:43.399Z,7.70
2018-01-06T09:10:11.604Z,7.70
2018-01-06T09:12:39.060Z,7.70
2018-01-06T09:15:06.540Z,7.80
2018-01-06T09:17:34.084Z,7.90
2018-01-06T09:20:01.536Z,7.80
2018-01-06T09:22:28.991Z,7.80
2018-01-06T09:24:56.501Z,7.90
2018-01-06T09:27:24.012Z,8.00
2018-01-06T09:29:51.529Z,8.00
2018-01-06T09:32:19.065Z,8.10
2018-01-06T09:34:47.298Z,8.10
2018-01-06T09:37:14.757Z,8.10
2018-01-06T09:39:42.320Z,8.30
2018-01-06T09:42:09.858Z,8.30
2018-01-06T09:44:37.328Z,8.40
2018-01-06T09:47:04.955Z,8.40
2018-01-06T09:49:32.420Z,8.40
2018-01-06T09:51:59.887Z,8.50
2018-01-06T09:54:27.362Z,8.60
2018-01-06T09:56:54.808Z,8.90
2018-01-06T09:59:22.274Z,9.40
2018-01-06T10:01:49.748Z,9.60
2018-01-06T10:04:17.238Z,9.80
2018-01-06T10:06:44.752Z,9.90
2018-01-06T10:09:12.310Z,10.00
2018-01-06T10:11:39.768Z,10.00
2018-01-06T10:14:07.361Z,10.30
2018-01-06T10:16:34.980Z,11.00
2018-01-06T10:19:02.505Z,11.60
2018-01-06T10:21:29.968Z,11.90
2018-01-06T10:23:57.440Z,11.50
2018-01-06T10:26:24.938Z,11.20
2018-01-06T10:28:53.197Z,11.40
2018-01-06T10:31:20.686Z,11.30
2018-01-06T10:33:48.277Z,11.50
2018-01-06T10:36:15.825Z,11.50
2018-01-06T10:38:43.292Z,11.30
2018-01-06T10:41:10.779Z,11.30
2018-01-06T10:43:38.297Z,11.30
2018-01-06T10:46:05.762Z,11.10
2018-01-06T10:48:33.356Z,10.70
2018-01-06T10:51:00.838Z,10.50
2018-01-06T10:53:29.069Z,10.30
2018-01-06T10:58:30.515Z,10.70
2018-01-06T11:01:03.710Z,10.80
2018-01-06T11:03:31.212Z,10.70
2018-01-06T11:05:58.755Z,10.40
2018-01-06T11:08:26.212Z,9.90
2018-01-06T11:10:54.498Z,9.40
2018-01-06T11:13:22.049Z,9.30
2018-01-06T11:15:49.603Z,9.50
2018-01-06T11:18:17.176Z,9.80
2018-01-06T11:20:44.729Z,10.00
2018-01-06T11:23:12.213Z,9.80
2018-01-06T11:25:40.480Z,9.60
2018-01-06T11:28:07.953Z,9.60
2018-01-06T11:30:35.419Z,9.40
2018-01-06T11:33:03.020Z,9.50
2018-01-06T11:35:30.488Z,9.30
2018-01-06T11:37:58.059Z,9.20
2018-01-06T11:40:25.509Z,8.90
2018-01-06T11:42:53.059Z,8.90
2018-01-06T11:45:20.525Z,8.80
2018-01-06T11:47:48.072Z,8.90
2018-01-06T11:50:15.533Z,9.00
2018-01-06T11:52:42.984Z,9.10
2018-01-06T11:55:10.447Z,9.10
2018-01-06T11:57:38.008Z,9.20
2018-01-06T12:00:05.580Z,9.30
2018-01-06T12:02:33.040Z,9.60
2018-01-06T12:05:01.268Z,11.20
2018-01-06T12:07:30.008Z,11.10
2018-01-06T12:10:00.483Z,11.60
2018-01-06T12:12:27.994Z,11.60
2018-01-06T12:14:56.240Z,10.50
2018-01-06T12:17:23.804Z,10.40
2018-01-06T12:19:51.641Z,10.30
2018-01-06T12:22:20.638Z,10.10
2018-01-06T12:24:48.678Z,10.00
2018-01-06T12:27:16.188Z,9.90
2018-01-06T12:29:43.744Z,9.80
2018-01-06T12:32:11.195Z,9.70
2018-01-06T12:34:38.663Z,9.60
2018-01-06T12:37:06.133Z,9.60
2018-01-06T12:39:34.369Z,9.50
2018-01-06T12:42:01.845Z,9.40
2018-01-06T12:44:29.311Z,9.60
2018-01-06T12:46:56.778Z,9.90
2018-01-06T12:49:25.041Z,10.00
2018-01-06T12:51:53.320Z,10.10
2018-01-06T12:54:20.820Z,10.00
2018-01-06T12:56:48.323Z,10.00
2018-01-06T12:59:15.788Z,10.00
2018-01-06T13:01:44.020Z,9.90
2018-01-06T13:04:11.482Z,9.90
2018-01-06T13:06:38.997Z,9.90
2018-01-06T13:09:07.226Z,9.60
2018-01-06T13:11:34.710Z,9.50
2018-01-06T13:14:02.220Z,9.70
2018-01-06T13:16:29.720Z,9.70
2018-01-06T13:18:57.209Z,9.80
2018-01-06T13:21:25.485Z,9.60
2018-01-06T13:23:53.739Z,9.30
2018-01-06T13:26:22.015Z,9.30
2018-01-06T13:28:49.518Z,9.20
2018-01-06T13:31:17.060Z,9.10
2018-01-06T13:33:44.537Z,9.10
2018-01-06T13:36:11.997Z,9.10
2018-01-06T13:38:39.460Z,9.20
2018-01-06T13:41:06.947Z,9.10
2018-01-06T13:43:34.421Z,9.10
2018-01-06T13:46:01.868Z,9.10
2018-01-06T13:48:29.322Z,9.10
2018-01-06T13:50:56.780Z,9.10
2018-01-06T13:53:24.242Z,9.10
2018-01-06T13:55:51.700Z,9.10
2018-01-06T13:58:19.200Z,9.20
2018-01-06T14:00:46.727Z,9.10
2018-01-06T14:03:14.952Z,9.10
2018-01-06T14:05:42.424Z,9.10
2018-01-06T14:08:09.954Z,9.10
2018-01-06T14:10:38.532Z,9.10
2018-01-06T14:13:06.188Z,9.10
2018-01-06T14:15:33.643Z,9.00
2018-01-06T14:18:01.111Z,9.10
2018-01-06T14:20:28.655Z,9.00
2018-01-06T14:22:56.171Z,9.00
2018-01-06T14:25:24.422Z,9.00
2018-01-06T14:27:51.902Z,8.90
2018-01-06T14:30:19.542Z,8.90
2018-01-06T14:32:47.018Z,8.90
2018-01-06T14:35:14.476Z,8.90
2018-01-06T14:37:42.019Z,8.80
2018-01-06T14:40:09.436Z,8.80
2018-01-06T14:42:36.941Z,8.80
2018-01-06T14:45:04.512Z,8.90
2018-01-06T14:47:32.790Z,8.90
2018-01-06T14:50:00.249Z,8.80
2018-01-06T14:52:28.490Z,8.90
2018-01-06T14:54:55.953Z,8.90
2018-01-06T14:57:23.664Z,8.90
2018-01-06T14:59:51.250Z,8.70
2018-01-06T15:02:18.838Z,8.60
2018-01-06T15:04:46.296Z,8.60
2018-01-06T15:07:13.865Z,8.60
2018-01-06T15:09:41.322Z,8.60
2018-01-06T15:12:09.863Z,8.50
2018-01-06T15:14:37.328Z,8.50
2018-01-06T15:17:04.827Z,8.50
2018-01-06T15:19:33.190Z,8.70
2018-01-06T15:22:00.653Z,8.60
2018-01-06T15:24:28.231Z,8.70
2018-01-06T15:26:56.503Z,8.60
2018-01-06T15:29:24.932Z,8.60
2018-01-06T15:31:52.386Z,8.60
2018-01-06T15:34:20.042Z,8.70
2018-01-06T15:36:47.552Z,8.70
2018-01-06T15:39:15.016Z,8.70
2018-01-06T15:41:43.396Z,8.70
2018-01-06T15:44:11.660Z,8.70
2018-01-06T15:46:39.895Z,8.70
2018-01-06T15:49:12.316Z,8.70
2018-01-06T15:51:40.547Z,8.70
2018-01-06T15:54:08.103Z,8.60
2018-01-06T15:56:35.584Z,8.70
2018-01-06T15:59:03.143Z,8.70
2018-01-06T16:01:30.626Z,8.70
2018-01-06T16:03:58.103Z,8.70
2018-01-06T16:06:25.592Z,8.70
2018-01-06T16:08:53.052Z,8.70
2018-01-06T16:11:20.523Z,8.70
2018-01-06T16:13:47.983Z,8.70
2018-01-06T16:16:15.564Z,8.60
2018-01-06T16:18:43.844Z,8.60
2018-01-06T16:21:12.070Z,8.60
2018-01-06T16:23:39.548Z,8.60
2018-01-06T16:26:07.008Z,8.60
2018-01-06T16:28:34.488Z,8.60
2018-01-06T16:31:02.734Z,8.60
2018-01-06T16:33:30.261Z,8.60
2018-01-06T16:35:57.727Z,8.60
2018-01-06T16:38:25.192Z,8.60
2018-01-06T16:40:52.682Z,8.50
2018-01-06T16:43:20.132Z,8.50
2018-01-06T16:45:47.707Z,8.50
2018-01-06T16:48:15.960Z,8.50
2018-01-06T16:50:43.525Z,8.50
2018-01-06T16:53:11.013Z,8.50
2018-01-06T16:55:39.239Z,8.50
2018-01-06T16:58:06.717Z,8.50
2018-01-06T17:00:34.223Z,8.50
2018-01-06T17:03:01.697Z,8.50
2018-01-06T17:05:29.212Z,8.40
2018-01-06T17:07:57.474Z,8.40
2018-01-06T17:10:25.713Z,8.40
2018-01-06T17:12:53.177Z,8.40
2018-01-06T17:15:20.643Z,8.40
2018-01-06T17:17:48.264Z,8.40
2018-01-06T17:20:15.720Z,8.30
2018-01-06T17:22:43.200Z,8.30
2018-01-06T17:25:10.701Z,8.30
2018-01-06T17:27:38.937Z,8.20
2018-01-06T17:30:06.416Z,8.20
2018-01-06T17:32:33.928Z,8.20
2018-01-06T17:35:01.707Z,8.20
2018-01-06T17:37:29.198Z,8.20
2018-01-06T17:39:56.919Z,8.20
2018-01-06T17:42:25.487Z,8.20
2018-01-06T17:44:53.279Z,8.20
2018-01-06T17:47:20.770Z,8.20
2018-01-06T17:49:48.230Z,8.20
2018-01-06T17:52:16.500Z,8.20
2018-01-06T17:54:44.635Z,8.20
2018-01-06T17:57:12.126Z,8.20
2018-01-06T17:59:39.642Z,8.20
2018-01-06T18:02:07.152Z,8.20
2018-01-06T18:04:35.372Z,8.20
2018-01-06T18:07:02.874Z,8.20
2018-01-06T18:09:31.198Z,8.20
2018-01-06T18:11:58.714Z,8.10
2018-01-06T18:14:26.986Z,8.10
2018-01-06T18:16:54.667Z,8.10
2018-01-06T18:19:22.153Z,8.10
2018-01-06T18:21:49.674Z,8.10
2018-01-06T18:24:17.907Z,8.00
2018-01-06T18:26:45.367Z,8.00
2018-01-06T18:29:12.881Z,8.00
2018-01-06T18:31:40.354Z,8.00
2018-01-06T18:34:08.634Z,8.00
2018-01-06T18:36:36.101Z,8.00
2018-01-06T18:39:03.568Z,8.00
2018-01-06T18:41:31.037Z,8.00
2018-01-06T18:43:58.536Z,8.00
2018-01-06T18:46:25.988Z,8.00
2018-01-06T18:48:53.473Z,8.00
2018-01-06T18:51:20.962Z,8.00
2018-01-06T18:53:48.448Z,7.90
2018-01-06T18:56:16.684Z,7.90
2018-01-06T18:58:44.147Z,7.80
2018-01-06T19:01:11.604Z,7.80
2018-01-06T19:03:39.828Z,7.80
2018-01-06T19:06:07.284Z,7.70
2018-01-06T19:08:34.744Z,7.70
2018-01-06T19:11:02.228Z,7.70
2018-01-06T19:13:29.699Z,7.60
2018-01-06T19:15:57.210Z,7.60
2018-01-06T19:18:24.794Z,7.60
2018-01-06T19:20:52.355Z,7.60
2018-01-06T19:23:19.837Z,7.60
2018-01-06T19:25:47.295Z,7.60
2018-01-06T19:28:14.780Z,7.60
2018-01-06T19:30:43.008Z,7.40
2018-01-06T19:33:10.490Z,7.40
2018-01-06T19:35:37.965Z,7.40
2018-01-06T19:38:06.200Z,7.40
2018-01-06T19:40:33.967Z,7.30
2018-01-06T19:43:01.387Z,7.40
2018-01-06T19:45:28.966Z,7.30
2018-01-06T19:47:56.423Z,7.30
2018-01-06T19:50:23.901Z,7.40
2018-01-06T19:52:51.381Z,7.30
2018-01-06T19:55:18.849Z,7.30
2018-01-06T19:57:47.077Z,7.30
2018-01-06T20:00:14.535Z,7.20
2018-01-06T20:02:42.007Z,7.30
2018-01-06T20:05:09.506Z,7.30
2018-01-06T20:07:37.746Z,7.20
2018-01-06T20:10:05.228Z,7.20
2018-01-06T20:12:33.456Z,7.20
2018-01-06T20:15:01.018Z,7.10
2018-01-06T20:17:28.483Z,7.20
2018-01-06T20:19:56.019Z,7.20
2018-01-06T20:22:23.481Z,7.20
2018-01-06T20:24:51.135Z,7.10
2018-01-06T20:27:18.605Z,7.10
2018-01-06T20:29:46.074Z,7.10
2018-01-06T20:32:13.544Z,7.10
2018-01-06T20:34:41.011Z,7.00
2018-01-06T20:37:08.480Z,7.00
2018-01-06T20:39:36.719Z,6.90
2018-01-06T20:42:04.665Z,6.90
2018-01-06T20:44:32.127Z,7.00
2018-01-06T20:46:59.583Z,7.00
2018-01-06T20:49:27.160Z,7.00
2018-01-06T20:51:54.706Z,6.90
2018-01-06T20:54:22.157Z,6.90
2018-01-06T20:56:49.620Z,6.80
2018-01-06T20:59:17.091Z,6.80
2018-01-06T21:01:45.351Z,6.90
2018-01-06T21:04:12.808Z,6.80
2018-01-06T21:06:40.287Z,6.90
2018-01-06T21:09:07.802Z,6.80
2018-01-06T21:11:35.258Z,6.80
2018-01-06T21:14:02.713Z,6.90
2018-01-06T21:16:30.192Z,6.80
2018-01-06T21:18:57.652Z,6.80
2018-01-06T21:21:25.188Z,6.80
2018-01-06T21:23:52.714Z,6.80
2018-01-06T21:26:20.221Z,6.80
2018-01-06T21:28:47.692Z,6.80
2018-01-06T21:31:15.217Z,6.80
2018-01-06T21:33:42.673Z,6.90
2018-01-06T21:36:10.150Z,6.80
2018-01-06T21:38:37.616Z,6.80
2018-01-06T21:41:05.110Z,6.90
2018-01-06T21:43:33.344Z,7.00
2018-01-06T21:46:00.805Z,6.90
2018-01-06T21:48:28.276Z,6.90
2018-01-06T21:50:55.731Z,7.00
2018-01-06T21:53:23.206Z,7.00
2018-01-06T21:55:51.446Z,7.00
2018-01-06T21:58:18.919Z,6.90
2018-01-06T22:00:46.373Z,6.90
2018-01-06T22:03:13.842Z,7.00
2018-01-06T22:05:41.317Z,7.00
2018-01-06T22:08:09.556Z,7.10
2018-01-06T22:10:37.061Z,7.00
2018-01-06T22:13:04.523Z,7.10
2018-01-06T22:15:31.985Z,7.00
2018-01-06T22:17:59.452Z,6.90
2018-01-06T22:20:26.907Z,6.90
2018-01-06T22:22:54.364Z,6.90
2018-01-06T22:25:21.849Z,6.90
2018-01-06T22:27:49.317Z,6.90
2018-01-06T22:30:16.786Z,6.90
2018-01-06T22:32:44.261Z,6.90
2018-01-06T22:35:12.494Z,6.80
2018-01-06T22:37:39.948Z,6.80
2018-01-06T22:40:07.444Z,6.70
2018-01-06T22:42:34.908Z,6.80
2018-01-06T22:45:03.133Z,6.80
2018-01-06T22:47:30.610Z,6.80
2018-01-06T22:49:58.071Z,6.80
2018-01-06T22:52:25.542Z,6.80
2018-01-06T22:54:53.010Z,6.80
2018-01-06T22:57:21.235Z,6.70
2018-01-06T22:59:48.697Z,6.70
2018-01-06T23:02:16.162Z,6.70
2018-01-06T23:04:43.639Z,6.70
2018-01-06T23:07:11.877Z,6.70
2018-01-06T23:09:39.331Z,6.70
2018-01-06T23:12:06.793Z,6.80
2018-01-06T23:14:34.251Z,6.70
2018-01-06T23:17:01.711Z,6.60
2018-01-06T23:19:29.180Z,6.60
2018-01-06T23:21:56.700Z,6.50
2018-01-06T23:24:24.154Z,6.40
2018-01-06T23:26:51.614Z,6.50
2018-01-06T23:29:19.062Z,6.50
2018-01-06T23:31:46.541Z,6.50
2018-01-06T23:34:13.999Z,6.40
2018-01-06T23:36:41.459Z,6.50
2018-01-06T23:39:09.676Z,6.40
2018-01-06T23:41:38.027Z,6.40
2018-01-06T23:44:05.441Z,6.30
2018-01-06T23:46:32.896Z,6.40
2018-01-06T23:49:00.347Z,6.50
2018-01-06T23:51:27.800Z,6.60
2018-01-06T23:53:55.253Z,6.60
2018-01-06T23:56:22.708Z,6.50
2018-01-06T23:58:50.167Z,6.50
